createdAt,value
2022-10-05T00:01:57.068Z,25.45
2022-10-05T00:04:35.411Z,25.48
2022-10-05T00:07:25.119Z,25.42
2022-10-05T00:10:04.508Z,25.48
2022-10-05T00:12:43.960Z,25.40
2022-10-05T00:15:15.344Z,25.44
2022-10-05T00:17:53.231Z,25.38
2022-10-05T00:20:32.167Z,25.36
2022-10-05T00:23:04.347Z,25.45
2022-10-05T00:25:44.633Z,25.43
2022-10-05T00:28:33.384Z,25.46
2022-10-05T00:31:25.149Z,25.34
2022-10-05T00:33:56.606Z,25.37
2022-10-05T00:36:33.582Z,25.35
2022-10-05T00:39:13.210Z,25.34
2022-10-05T00:41:51.648Z,25.40
2022-10-05T00:44:34.047Z,25.36
2022-10-05T00:47:12.457Z,25.42
2022-10-05T00:49:47.682Z,25.38
2022-10-05T00:52:37.774Z,25.39
2022-10-05T00:55:36.601Z,25.43
2022-10-05T00:58:49.645Z,25.41
2022-10-05T01:01:33.184Z,25.41
2022-10-05T01:04:21.390Z,25.44
2022-10-05T01:07:13.718Z,25.42
2022-10-05T01:10:17.028Z,25.56
2022-10-05T01:13:08.382Z,25.67
2022-10-05T01:15:54.548Z,25.81
2022-10-05T01:18:33.177Z,25.87
2022-10-05T01:21:17.133Z,25.91
2022-10-05T01:24:13.701Z,26.00
2022-10-05T01:27:40.338Z,26.02
2022-10-05T01:30:26.999Z,26.05
2022-10-05T01:33:09.472Z,26.08
2022-10-05T01:36:14.519Z,26.17
2022-10-05T01:38:59.522Z,26.22
2022-10-05T01:41:35.560Z,26.22
2022-10-05T01:44:27.133Z,26.28
2022-10-05T01:47:38.462Z,26.25
2022-10-05T01:50:26.426Z,26.45
2022-10-05T01:53:08.828Z,26.48
2022-10-05T01:55:43.106Z,26.43
2022-10-05T01:58:34.415Z,26.44
2022-10-05T02:01:30.761Z,26.55
2022-10-05T02:05:01.510Z,26.35
2022-10-05T02:08:04.902Z,26.15
2022-10-05T02:10:55.221Z,25.92
2022-10-05T02:14:04.196Z,25.81
2022-10-05T02:16:50.572Z,25.71
2022-10-05T02:19:31.478Z,25.64
2022-10-05T02:22:19.462Z,25.48
2022-10-05T02:25:02.010Z,25.50
2022-10-05T02:28:13.107Z,25.46
2022-10-05T02:31:03.661Z,25.39
2022-10-05T02:33:39.862Z,25.45
2022-10-05T02:36:38.254Z,25.53
2022-10-05T02:39:34.583Z,25.41
2022-10-05T02:42:24.848Z,25.40
2022-10-05T02:45:23.474Z,25.36
2022-10-05T02:48:14.241Z,25.38
2022-10-05T02:50:53.675Z,25.31
2022-10-05T02:53:28.690Z,25.30
2022-10-05T02:56:22.409Z,25.40
2022-10-05T02:59:08.096Z,25.32
2022-10-05T03:01:52.780Z,25.27
2022-10-05T03:04:40.719Z,25.27
2022-10-05T03:07:36.912Z,25.26
2022-10-05T03:10:30.931Z,25.23
2022-10-05T03:13:35.594Z,25.19
2022-10-05T03:16:28.981Z,25.24
2022-10-05T03:19:33.279Z,25.22
2022-10-05T03:22:41.043Z,25.19
2022-10-05T03:25:35.990Z,25.18
2022-10-05T03:28:42.602Z,25.12
2022-10-05T03:31:16.066Z,25.13
2022-10-05T03:34:11.022Z,25.14
2022-10-05T03:37:00.647Z,25.17
2022-10-05T03:39:49.787Z,25.12
2022-10-05T03:42:32.508Z,25.14
2022-10-05T03:45:16.559Z,25.12
2022-10-05T03:48:01.258Z,25.20
2022-10-05T03:50:53.556Z,25.17
2022-10-05T03:53:35.336Z,25.17
2022-10-05T03:56:38.679Z,25.11
2022-10-05T03:59:33.019Z,25.15
2022-10-05T04:02:27.217Z,25.14
2022-10-05T04:05:16.017Z,25.09
2022-10-05T04:08:32.779Z,25.06
2022-10-05T04:11:20.591Z,25.13
2022-10-05T04:14:05.597Z,25.16
2022-10-05T04:17:12.410Z,25.20
2022-10-05T04:20:01.593Z,25.16
2022-10-05T04:22:46.489Z,25.19
2022-10-05T04:25:25.219Z,25.21
2022-10-05T04:28:12.093Z,25.22
2022-10-05T04:30:53.749Z,25.17
2022-10-05T04:33:26.673Z,25.08
2022-10-05T04:36:05.706Z,25.11
2022-10-05T04:38:38.661Z,25.14
2022-10-05T04:41:44.932Z,25.23
2022-10-05T04:44:50.448Z,25.19
2022-10-05T04:48:04.186Z,25.17
2022-10-05T04:51:01.502Z,25.15
2022-10-05T04:54:06.472Z,25.14
2022-10-05T04:56:50.671Z,25.07
2022-10-05T04:59:59.052Z,25.12
2022-10-05T05:03:00.435Z,25.14
2022-10-05T05:06:05.091Z,25.08
2022-10-05T05:09:04.236Z,25.06
2022-10-05T05:11:58.397Z,25.07
2022-10-05T05:14:58.613Z,25.07
2022-10-05T05:17:56.581Z,25.06
2022-10-05T05:20:42.455Z,25.07
2022-10-05T05:23:30.326Z,25.08
2022-10-05T05:26:09.376Z,25.03
2022-10-05T05:28:53.333Z,25.03
2022-10-05T05:31:56.687Z,25.06
2022-10-05T05:34:45.317Z,25.04
2022-10-05T05:37:37.583Z,24.98
2022-10-05T05:40:18.989Z,25.00
2022-10-05T05:42:55.939Z,25.07
2022-10-05T05:45:35.228Z,25.03
2022-10-05T05:48:38.055Z,25.09
2022-10-05T05:51:26.869Z,25.08
2022-10-05T05:54:21.233Z,25.24
2022-10-05T05:57:00.583Z,25.33
2022-10-05T05:59:44.738Z,25.40
2022-10-05T06:02:26.026Z,25.46
2022-10-05T06:05:32.543Z,25.52
2022-10-05T06:08:28.874Z,25.48
2022-10-05T06:11:20.905Z,25.52
2022-10-05T06:13:58.368Z,25.56
2022-10-05T06:16:48.175Z,25.54
2022-10-05T06:19:29.840Z,25.54
2022-10-05T06:22:22.326Z,25.59
2022-10-05T06:25:03.433Z,25.69
2022-10-05T06:27:38.765Z,25.73
2022-10-05T06:30:22.922Z,26.02
2022-10-05T06:33:36.546Z,26.27
2022-10-05T06:36:23.529Z,26.51
2022-10-05T06:39:09.458Z,26.49
2022-10-05T06:42:04.073Z,26.34
2022-10-05T06:45:38.755Z,26.25
2022-10-05T06:49:17.179Z,26.29
2022-10-05T06:52:03.802Z,26.14
2022-10-05T06:54:45.642Z,26.13
2022-10-05T06:57:36.886Z,26.11
2022-10-05T07:00:24.905Z,26.10
2022-10-05T07:03:22.281Z,26.06
2022-10-05T07:06:05.538Z,26.23
2022-10-05T07:09:02.702Z,26.14
2022-10-05T07:11:50.222Z,26.32
2022-10-05T07:14:43.448Z,25.99
2022-10-05T07:17:39.505Z,25.82
2022-10-05T07:20:25.342Z,25.80
2022-10-05T07:23:21.617Z,25.87
2022-10-05T07:26:03.397Z,25.91
2022-10-05T07:28:50.602Z,25.91
2022-10-05T07:31:56.972Z,25.97
2022-10-05T07:34:29.627Z,26.00
2022-10-05T07:37:28.545Z,26.09
2022-10-05T07:40:18.123Z,26.10
2022-10-05T07:43:10.671Z,26.05
2022-10-05T07:46:21.549Z,26.06
2022-10-05T07:49:34.665Z,26.00
2022-10-05T07:52:40.093Z,26.24
2022-10-05T07:55:27.792Z,26.18
2022-10-05T07:58:23.313Z,26.16
2022-10-05T08:01:08.896Z,26.08
2022-10-05T08:03:49.999Z,26.04
2022-10-05T08:06:47.861Z,26.04
2022-10-05T08:09:45.638Z,25.99
2022-10-05T08:12:31.967Z,25.93
2022-10-05T08:15:28.079Z,25.81
2022-10-05T08:18:22.009Z,25.80
2022-10-05T08:21:00.326Z,25.77
2022-10-05T08:23:39.164Z,25.73
2022-10-05T08:26:59.604Z,25.74
2022-10-05T08:29:45.640Z,25.68
2022-10-05T08:32:31.232Z,25.58
2022-10-05T08:35:19.425Z,25.49
2022-10-05T08:37:50.434Z,25.48
2022-10-05T08:40:21.983Z,25.46
2022-10-05T08:43:27.508Z,25.43
2022-10-05T08:46:17.811Z,25.38
2022-10-05T08:48:57.249Z,25.42
2022-10-05T08:51:51.677Z,25.40
2022-10-05T08:54:37.106Z,25.52
2022-10-05T08:57:29.723Z,25.56
2022-10-05T09:00:07.138Z,25.62
2022-10-05T09:02:59.312Z,25.62
2022-10-05T09:05:39.078Z,25.60
2022-10-05T09:08:31.105Z,25.57
2022-10-05T09:11:24.289Z,25.56
2022-10-05T09:14:39.085Z,25.54
2022-10-05T09:17:10.555Z,25.48
2022-10-05T09:19:49.407Z,25.43
2022-10-05T09:22:30.387Z,25.40
2022-10-05T09:25:24.615Z,25.42
2022-10-05T09:28:03.076Z,25.43
2022-10-05T09:30:58.283Z,25.46
2022-10-05T09:34:12.104Z,25.50
2022-10-05T09:37:09.081Z,25.57
2022-10-05T09:39:51.771Z,25.59
2022-10-05T09:42:47.017Z,25.55
2022-10-05T09:45:41.450Z,25.56
2022-10-05T09:48:47.332Z,25.56
2022-10-05T09:51:40.334Z,25.55
2022-10-05T09:54:36.782Z,25.55
2022-10-05T09:57:35.938Z,25.57
2022-10-05T10:00:19.105Z,25.59
2022-10-05T10:03:35.278Z,25.64
2022-10-05T10:06:40.892Z,25.66
2022-10-05T10:09:38.681Z,25.71
2022-10-05T10:12:37.357Z,25.66
2022-10-05T10:15:26.977Z,25.67
2022-10-05T10:18:03.383Z,25.68
2022-10-05T10:20:33.652Z,25.68
2022-10-05T10:23:18.884Z,25.71
2022-10-05T10:26:04.926Z,25.86
2022-10-05T10:28:55.344Z,26.17
2022-10-05T10:31:51.040Z,26.47
2022-10-05T10:34:57.494Z,26.72
2022-10-05T10:37:52.955Z,26.68
2022-10-05T10:40:48.255Z,26.57
2022-10-05T10:43:37.030Z,26.40
2022-10-05T10:46:21.281Z,26.25
2022-10-05T10:49:16.978Z,26.30
2022-10-05T10:52:27.395Z,26.22
2022-10-05T10:55:26.106Z,26.18
2022-10-05T10:58:16.210Z,26.08
2022-10-05T11:01:31.036Z,26.12
2022-10-05T11:04:23.176Z,26.08
2022-10-05T11:07:12.034Z,26.12
2022-10-05T11:10:01.187Z,26.10
2022-10-05T11:12:50.308Z,26.12
2022-10-05T11:16:00.735Z,26.02
2022-10-05T11:18:50.033Z,26.01
2022-10-05T11:21:40.784Z,26.07
2022-10-05T11:24:38.897Z,26.01
2022-10-05T11:27:34.256Z,26.03
2022-10-05T11:30:26.807Z,26.02
2022-10-05T11:33:34.431Z,25.99
2022-10-05T11:36:18.772Z,25.95
2022-10-05T11:39:23.446Z,26.02
2022-10-05T11:42:28.444Z,25.93
2022-10-05T11:45:36.203Z,25.95
2022-10-05T11:48:35.571Z,25.95
2022-10-05T11:51:27.898Z,25.95
2022-10-05T11:54:02.250Z,25.96
2022-10-05T11:57:00.847Z,25.92
2022-10-05T11:59:49.219Z,25.93
2022-10-05T12:02:43.701Z,25.91
2022-10-05T12:05:56.249Z,25.96
2022-10-05T12:08:44.331Z,25.92
2022-10-05T12:11:39.041Z,25.88
2022-10-05T12:14:50.067Z,25.87
2022-10-05T12:17:28.252Z,25.90
2022-10-05T12:20:15.665Z,25.89
2022-10-05T12:22:49.818Z,25.89
2022-10-05T12:25:30.155Z,25.92
2022-10-05T12:28:05.073Z,25.89
2022-10-05T12:30:51.344Z,25.87
2022-10-05T12:33:38.356Z,25.79
2022-10-05T12:36:21.180Z,25.83
2022-10-05T12:39:31.420Z,25.78
2022-10-05T12:42:07.890Z,25.80
2022-10-05T12:45:15.088Z,25.73
2022-10-05T12:48:12.478Z,25.80
2022-10-05T12:50:53.660Z,25.80
2022-10-05T12:54:02.336Z,25.82
2022-10-05T12:56:42.792Z,25.87
2022-10-05T12:59:34.233Z,25.96
2022-10-05T13:02:33.026Z,25.96
2022-10-05T13:05:24.940Z,25.91
2022-10-05T13:08:05.458Z,25.93
2022-10-05T13:10:45.600Z,25.94
2022-10-05T13:13:37.995Z,25.84
2022-10-05T13:16:23.647Z,25.85
2022-10-05T13:19:25.846Z,25.92
2022-10-05T13:22:25.374Z,25.95
2022-10-05T13:25:17.997Z,26.01
2022-10-05T13:28:31.470Z,26.00
2022-10-05T13:31:20.994Z,25.95
2022-10-05T13:34:05.784Z,25.93
2022-10-05T13:36:54.675Z,25.99
2022-10-05T13:40:03.182Z,25.96
2022-10-05T13:42:38.814Z,26.00
2022-10-05T13:45:22.607Z,26.03
2022-10-05T13:48:08.312Z,25.99
2022-10-05T13:51:07.729Z,25.99
2022-10-05T13:53:59.273Z,26.00
2022-10-05T13:56:33.646Z,25.98
2022-10-05T13:59:31.256Z,26.01
2022-10-05T14:02:17.253Z,26.06
2022-10-05T14:04:54.022Z,26.06
2022-10-05T14:07:39.378Z,26.17
2022-10-05T14:10:36.601Z,26.39
2022-10-05T14:13:34.924Z,26.56
2022-10-05T14:16:26.397Z,26.67
2022-10-05T14:19:01.791Z,26.77
2022-10-05T14:21:57.565Z,26.97
2022-10-05T14:24:47.707Z,27.44
2022-10-05T14:27:26.298Z,27.50
2022-10-05T14:30:04.278Z,27.34
2022-10-05T14:32:44.586Z,27.44
2022-10-05T14:35:22.668Z,27.68
2022-10-05T14:37:58.973Z,27.68
2022-10-05T14:40:35.783Z,27.65
2022-10-05T14:43:18.735Z,27.90
2022-10-05T14:46:01.009Z,28.09
2022-10-05T14:48:41.129Z,28.45
2022-10-05T14:51:32.177Z,28.48
2022-10-05T14:54:15.011Z,28.52
2022-10-05T14:56:48.798Z,28.50
2022-10-05T15:00:04.200Z,28.35
2022-10-05T15:02:53.481Z,28.53
2022-10-05T15:05:59.398Z,28.29
2022-10-05T15:08:55.117Z,28.12
2022-10-05T15:12:00.208Z,27.62
2022-10-05T15:14:43.407Z,27.14
2022-10-05T15:17:27.666Z,27.01
2022-10-05T15:20:22.222Z,26.44
2022-10-05T15:23:24.923Z,26.25
2022-10-05T15:26:41.612Z,25.88
2022-10-05T15:29:15.221Z,25.85
2022-10-05T15:32:03.895Z,25.89
2022-10-05T15:34:50.206Z,25.66
2022-10-05T15:37:33.263Z,25.58
2022-10-05T15:40:17.656Z,25.71
2022-10-05T15:42:59.612Z,25.59
2022-10-05T15:45:36.619Z,25.50
2022-10-05T15:48:29.303Z,25.49
2022-10-05T15:51:15.578Z,25.60
2022-10-05T15:54:11.918Z,25.80
2022-10-05T15:56:53.735Z,25.85
2022-10-05T15:59:46.758Z,25.91
2022-10-05T16:02:29.648Z,26.04
2022-10-05T16:05:04.928Z,26.02
2022-10-05T16:08:02.249Z,25.61
2022-10-05T16:10:36.592Z,25.18
2022-10-05T16:13:20.217Z,25.26
2022-10-05T16:16:15.772Z,25.05
2022-10-05T16:18:58.472Z,24.88
2022-10-05T16:21:48.586Z,24.85
2022-10-05T16:24:35.662Z,25.00
2022-10-05T16:27:32.176Z,25.24
2022-10-05T16:30:16.748Z,25.38
2022-10-05T16:32:52.535Z,25.41
2022-10-05T16:35:47.969Z,25.48
2022-10-05T16:38:29.798Z,25.49
2022-10-05T16:41:16.762Z,25.51
2022-10-05T16:44:04.746Z,25.47
2022-10-05T16:46:43.635Z,25.45
2022-10-05T16:49:43.765Z,25.49
2022-10-05T16:52:20.440Z,25.50
2022-10-05T16:54:57.558Z,25.53
2022-10-05T16:57:27.911Z,25.45
2022-10-05T17:00:10.834Z,25.37
2022-10-05T17:03:17.454Z,25.49
2022-10-05T17:06:09.979Z,25.49
2022-10-05T17:08:56.301Z,25.46
2022-10-05T17:11:50.781Z,25.34
2022-10-05T17:14:39.796Z,25.23
2022-10-05T17:17:49.011Z,25.26
2022-10-05T17:20:28.450Z,25.27
2022-10-05T17:23:21.487Z,25.24
2022-10-05T17:26:33.446Z,25.23
2022-10-05T17:29:47.700Z,25.25
2022-10-05T17:32:20.286Z,25.23
2022-10-05T17:35:18.504Z,25.22
2022-10-05T17:38:20.268Z,25.22
2022-10-05T17:41:04.815Z,25.22
2022-10-05T17:43:42.987Z,25.23
2022-10-05T17:46:10.965Z,25.21
2022-10-05T17:49:02.444Z,25.23
2022-10-05T17:51:48.804Z,25.23
2022-10-05T17:55:16.849Z,25.22
2022-10-05T17:57:49.426Z,25.25
2022-10-05T18:00:34.936Z,25.24
2022-10-05T18:03:43.586Z,25.24
2022-10-05T18:06:26.497Z,25.23
2022-10-05T18:09:23.061Z,25.21
2022-10-05T18:12:12.314Z,25.20
2022-10-05T18:15:03.097Z,25.20
2022-10-05T18:17:51.543Z,25.19
2022-10-05T18:20:37.385Z,25.21
2022-10-05T18:23:09.901Z,25.19
2022-10-05T18:25:45.890Z,25.18
2022-10-05T18:28:35.258Z,25.20
2022-10-05T18:31:27.366Z,25.19
2022-10-05T18:34:18.196Z,25.18
2022-10-05T18:37:31.726Z,25.18
2022-10-05T18:40:13.227Z,25.15
2022-10-05T18:43:06.498Z,25.13
2022-10-05T18:45:49.016Z,25.12
2022-10-05T18:49:03.272Z,25.11
2022-10-05T18:52:00.480Z,25.08
2022-10-05T18:55:04.012Z,25.08
2022-10-05T18:57:53.410Z,25.10
2022-10-05T19:00:26.923Z,25.08
2022-10-05T19:03:05.369Z,25.08
2022-10-05T19:05:53.770Z,25.08
2022-10-05T19:08:39.143Z,25.06
2022-10-05T19:11:28.573Z,25.06
2022-10-05T19:14:23.020Z,25.03
2022-10-05T19:17:45.195Z,25.01
2022-10-05T19:20:22.505Z,25.01
2022-10-05T19:23:09.441Z,24.99
2022-10-05T19:25:48.756Z,24.97
2022-10-05T19:28:32.579Z,24.94
2022-10-05T19:31:12.198Z,24.95
2022-10-05T19:34:03.646Z,24.95
2022-10-05T19:36:40.827Z,24.95
2022-10-05T19:39:36.169Z,24.94
2022-10-05T19:42:38.983Z,24.93
2022-10-05T19:45:26.485Z,24.91
2022-10-05T19:48:30.456Z,24.90
2022-10-05T19:51:05.568Z,24.88
2022-10-05T19:53:45.791Z,24.84
2022-10-05T19:56:41.603Z,24.84
2022-10-05T19:59:21.432Z,24.86
2022-10-05T20:01:57.792Z,24.86
2022-10-05T20:04:48.803Z,24.83
2022-10-05T20:07:21.771Z,24.84
2022-10-05T20:10:17.025Z,24.82
2022-10-05T20:12:56.527Z,24.82
2022-10-05T20:15:50.346Z,24.80
2022-10-05T20:18:55.669Z,24.79
2022-10-05T20:21:47.150Z,24.76
2022-10-05T20:24:21.898Z,24.73
2022-10-05T20:27:06.656Z,24.73
2022-10-05T20:29:44.198Z,24.73
2022-10-05T20:32:18.073Z,24.72
2022-10-05T20:34:55.541Z,24.68
2022-10-05T20:37:27.263Z,24.68
2022-10-05T20:40:00.601Z,24.66
2022-10-05T20:42:31.038Z,24.62
2022-10-05T20:45:04.825Z,24.63
2022-10-05T20:47:46.560Z,24.63
2022-10-05T20:50:16.245Z,24.64
2022-10-05T20:52:49.582Z,24.59
2022-10-05T20:55:20.798Z,24.60
2022-10-05T20:57:53.656Z,24.58
2022-10-05T21:00:23.916Z,24.55
2022-10-05T21:03:07.668Z,24.55
2022-10-05T21:05:41.486Z,24.61
2022-10-05T21:08:09.178Z,24.74
2022-10-05T21:10:44.733Z,24.95
2022-10-05T21:13:18.427Z,25.09
2022-10-05T21:15:51.682Z,25.24
2022-10-05T21:18:25.425Z,25.42
2022-10-05T21:20:59.879Z,25.49
2022-10-05T21:23:35.177Z,25.60
2022-10-05T21:26:07.940Z,25.72
2022-10-05T21:28:40.197Z,25.74
2022-10-05T21:31:09.267Z,25.81
2022-10-05T21:33:39.872Z,25.88
2022-10-05T21:36:15.765Z,25.99
2022-10-05T21:38:46.628Z,25.97
2022-10-05T21:41:15.050Z,25.92
2022-10-05T21:43:48.113Z,25.95
2022-10-05T21:46:20.271Z,25.88
2022-10-05T21:48:54.355Z,25.93
2022-10-05T21:51:27.159Z,25.81
2022-10-05T21:54:09.406Z,25.64
2022-10-05T21:56:43.773Z,25.44
2022-10-05T21:59:16.754Z,25.22
2022-10-05T22:01:52.382Z,25.00
2022-10-05T22:04:23.503Z,24.90
2022-10-05T22:06:59.612Z,24.77
2022-10-05T22:09:30.588Z,24.64
2022-10-05T22:12:01.153Z,24.58
2022-10-05T22:14:32.805Z,24.56
2022-10-05T22:17:04.012Z,24.48
2022-10-05T22:19:33.581Z,24.42
2022-10-05T22:22:13.673Z,24.40
2022-10-05T22:24:41.248Z,24.36
2022-10-05T22:27:11.646Z,24.35
2022-10-05T22:29:42.610Z,24.30
2022-10-05T22:32:15.696Z,24.28
2022-10-05T22:34:43.442Z,24.24
2022-10-05T22:37:13.109Z,24.24
2022-10-05T22:39:48.211Z,24.23
2022-10-05T22:42:15.909Z,24.19
2022-10-05T22:44:49.046Z,24.18
2022-10-05T22:47:27.549Z,24.14
2022-10-05T22:49:58.077Z,24.14
2022-10-05T22:52:31.481Z,24.13
2022-10-05T22:55:03.495Z,24.09
2022-10-05T22:57:41.397Z,24.06
2022-10-05T23:00:14.834Z,24.06
2022-10-05T23:02:50.232Z,24.03
2022-10-05T23:05:18.650Z,24.02
2022-10-05T23:07:48.755Z,24.03
2022-10-05T23:10:20.170Z,24.03
2022-10-05T23:13:00.701Z,24.02
2022-10-05T23:15:31.317Z,24.04
2022-10-05T23:18:04.719Z,24.00
2022-10-05T23:20:35.676Z,23.97
2022-10-05T23:23:08.631Z,23.96
2022-10-05T23:25:39.026Z,23.96
2022-10-05T23:28:15.004Z,23.94
2022-10-05T23:30:45.597Z,23.92
2022-10-05T23:33:20.880Z,23.91
2022-10-05T23:36:12.466Z,23.91
2022-10-05T23:38:42.474Z,23.90
2022-10-05T23:41:15.993Z,23.88
2022-10-05T23:43:45.960Z,23.89
2022-10-05T23:46:16.347Z,23.88
2022-10-05T23:48:50.439Z,23.85
2022-10-05T23:51:23.635Z,23.84
2022-10-05T23:53:53.764Z,23.84
2022-10-05T23:56:21.919Z,23.80
2022-10-05T23:58:49.923Z,23.83
